Time;durP1;ratioP1;P1;durP2;ratioP2;P2;SDS_P1;SDS_P2;PMS_P1;PMS_P2;Temp;Humidity;BMP_temperature;BMP_pressure;BME280_temperature;BME280_humidity;BME280_pressure;Samples;Min_cycle;Max_cycle;Signal;HPM_P1;HPM_P2
2023/12/28 00:02:06;;;;;;;4.18;2.85;;;12.70;99.90;;;;;;5111787;28;20366;-46
2023/12/28 00:04:34;;;;;;;5.13;3.08;;;12.70;99.90;;;;;;5113015;28;20024;-46
2023/12/28 00:07:00;;;;;;;4.30;2.80;;;12.60;99.90;;;;;;5112473;28;20046;-45
2023/12/28 00:09:26;;;;;;;3.72;2.50;;;12.70;99.90;;;;;;5112517;28;20020;-45
2023/12/28 00:11:51;;;;;;;4.05;2.47;;;12.70;99.90;;;;;;5112946;28;20429;-45
2023/12/28 00:14:17;;;;;;;4.88;2.80;;;12.70;99.90;;;;;;5111454;28;20119;-46
2023/12/28 00:16:42;;;;;;;5.18;3.28;;;12.70;99.90;;;;;;5113084;28;20027;-46
2023/12/28 00:19:08;;;;;;;4.55;2.60;;;12.60;99.90;;;;;;5112660;28;20034;-45
2023/12/28 00:21:34;;;;;;;5.57;3.20;;;12.60;99.90;;;;;;5112611;28;20036;-45
2023/12/28 00:23:59;;;;;;;5.72;3.17;;;12.60;99.90;;;;;;5112916;28;20114;-46
2023/12/28 00:26:25;;;;;;;4.57;3.22;;;12.60;99.90;;;;;;5112672;28;20026;-46
2023/12/28 00:28:51;;;;;;;6.30;3.53;;;12.60;99.90;;;;;;5112573;28;20508;-45
2023/12/28 00:31:16;;;;;;;5.95;3.40;;;12.60;99.90;;;;;;5112648;28;20385;-46
2023/12/28 00:33:42;;;;;;;4.97;3.10;;;12.60;99.90;;;;;;5112787;28;20034;-46
2023/12/28 00:36:08;;;;;;;5.40;3.45;;;12.60;99.90;;;;;;5112285;28;20026;-46
2023/12/28 00:38:33;;;;;;;3.80;2.97;;;12.60;99.90;;;;;;5112584;28;20035;-45
2023/12/28 00:40:59;;;;;;;4.53;2.85;;;12.60;99.90;;;;;;5112553;28;20031;-45
2023/12/28 00:43:24;;;;;;;5.00;2.92;;;12.60;99.90;;;;;;5112877;28;20028;-45
2023/12/28 00:45:50;;;;;;;5.03;3.05;;;12.60;99.90;;;;;;5112214;28;20477;-45
2023/12/28 00:48:16;;;;;;;5.40;2.80;;;12.60;99.90;;;;;;5112393;28;20106;-46
2023/12/28 00:50:41;;;;;;;4.05;2.70;;;12.60;99.90;;;;;;5112270;28;20020;-46
2023/12/28 00:53:07;;;;;;;4.57;2.70;;;12.60;99.90;;;;;;5112085;28;20023;-45
2023/12/28 00:55:32;;;;;;;4.53;3.05;;;12.60;99.90;;;;;;5112691;28;20024;-45
2023/12/28 00:57:58;;;;;;;4.68;2.83;;;12.50;99.90;;;;;;5112243;28;20107;-45
2023/12/28 01:00:24;;;;;;;7.05;3.40;;;12.50;99.90;;;;;;5112317;28;20015;-46
2023/12/28 01:02:50;;;;;;;3.85;2.60;;;12.50;99.90;;;;;;5112112;28;20493;-45
2023/12/28 01:05:16;;;;;;;4.70;2.95;;;12.50;99.90;;;;;;5111915;28;20516;-45
2023/12/28 01:07:42;;;;;;;4.45;2.90;;;12.50;99.90;;;;;;5111712;28;20054;-45
2023/12/28 01:10:08;;;;;;;3.72;2.97;;;12.50;99.90;;;;;;5112366;28;20051;-46
2023/12/28 01:12:33;;;;;;;4.32;2.50;;;12.50;99.90;;;;;;5112052;28;20541;-46
2023/12/28 01:14:59;;;;;;;4.22;2.90;;;12.50;99.90;;;;;;5111812;28;20024;-45
2023/12/28 01:17:25;;;;;;;4.88;2.72;;;12.50;99.90;;;;;;5111808;28;20423;-45
2023/12/28 01:19:50;;;;;;;3.28;2.70;;;12.50;99.90;;;;;;5111518;28;20050;-46
2023/12/28 01:22:16;;;;;;;6.10;3.00;;;12.50;99.90;;;;;;5111739;28;20029;-45
2023/12/28 01:24:41;;;;;;;3.78;2.63;;;12.50;99.90;;;;;;5111637;28;20036;-45
2023/12/28 01:27:07;;;;;;;3.83;2.58;;;12.50;99.90;;;;;;5111665;28;20047;-46
2023/12/28 01:29:34;;;;;;;3.80;2.50;;;12.50;99.90;;;;;;5111633;28;20028;-45
2023/12/28 01:31:59;;;;;;;3.92;2.50;;;12.40;99.90;;;;;;5111413;28;20022;-45
2023/12/28 01:34:25;;;;;;;4.00;2.80;;;12.40;99.90;;;;;;5111889;28;20103;-46
2023/12/28 01:36:51;;;;;;;3.92;2.83;;;12.50;99.90;;;;;;5111558;28;20047;-46
2023/12/28 01:39:18;;;;;;;4.05;2.58;;;12.40;99.90;;;;;;5111518;28;20362;-45
2023/12/28 01:41:45;;;;;;;4.00;2.60;;;12.40;99.90;;;;;;5111552;28;20523;-45
2023/12/28 01:44:10;;;;;;;3.40;2.40;;;12.50;99.90;;;;;;5111552;28;20035;-46
2023/12/28 01:46:36;;;;;;;3.20;2.10;;;12.40;99.90;;;;;;5111874;28;20019;-46
2023/12/28 01:49:03;;;;;;;2.78;2.30;;;12.40;99.90;;;;;;5111975;28;20548;-45
2023/12/28 01:51:29;;;;;;;3.85;2.70;;;12.40;99.90;;;;;;5111597;28;20106;-46
2023/12/28 01:53:55;;;;;;;3.30;2.40;;;12.40;99.90;;;;;;5111983;28;20102;-46
2023/12/28 01:56:21;;;;;;;4.03;2.53;;;12.40;99.90;;;;;;5111449;28;20385;-45
2023/12/28 01:58:50;;;;;;;3.70;2.40;;;12.40;99.90;;;;;;5111820;28;20098;-46
2023/12/28 02:01:17;;;;;;;2.10;1.90;;;12.40;99.90;;;;;;5111484;28;20038;-45
2023/12/28 02:03:43;;;;;;;3.78;2.40;;;12.40;99.90;;;;;;5111773;28;20393;-46
2023/12/28 02:06:09;;;;;;;3.65;2.08;;;12.40;99.90;;;;;;5111730;28;20022;-46
2023/12/28 02:08:34;;;;;;;4.47;2.20;;;12.40;99.90;;;;;;5111301;28;20024;-46
2023/12/28 02:11:00;;;;;;;4.15;2.40;;;12.40;99.90;;;;;;5111333;28;20492;-45
2023/12/28 02:13:26;;;;;;;4.05;2.30;;;12.40;99.90;;;;;;5111291;28;20389;-45
2023/12/28 02:15:56;;;;;;;5.35;2.22;;;12.40;99.90;;;;;;5111132;28;20103;-45
2023/12/28 02:18:26;;;;;;;3.42;2.20;;;12.40;99.90;;;;;;5111161;28;20161;-45
2023/12/28 02:20:52;;;;;;;3.05;2.30;;;12.40;99.90;;;;;;5111100;28;20023;-45
2023/12/28 02:23:18;;;;;;;3.35;2.30;;;12.30;99.90;;;;;;5111113;28;20028;-45
2023/12/28 02:25:44;;;;;;;3.15;2.10;;;12.30;99.90;;;;;;5111342;28;20022;-45
2023/12/28 02:28:09;;;;;;;2.65;1.90;;;12.30;99.90;;;;;;5111517;28;20469;-45
2023/12/28 02:30:35;;;;;;;3.08;2.05;;;12.40;99.90;;;;;;5111402;28;20023;-46
2023/12/28 02:33:23;;;;;;;3.38;1.92;;;12.40;99.90;;;;;;5115047;28;20027;-45
2023/12/28 02:35:58;;;;;;;3.15;2.00;;;12.30;99.90;;;;;;5114766;28;20022;-45
2023/12/28 02:38:27;;;;;;;3.20;2.00;;;12.30;99.90;;;;;;5114590;28;20492;-45
2023/12/28 02:40:53;;;;;;;3.38;2.10;;;12.30;99.90;;;;;;5114980;28;20031;-45
2023/12/28 02:43:19;;;;;;;3.33;1.92;;;12.30;99.90;;;;;;5114751;28;20072;-46
2023/12/28 02:45:45;;;;;;;2.80;1.90;;;12.30;99.90;;;;;;5114740;28;20045;-45
2023/12/28 02:48:11;;;;;;;2.67;2.00;;;12.30;99.90;;;;;;5114446;28;20019;-45
2023/12/28 02:50:36;;;;;;;2.95;2.05;;;12.30;99.90;;;;;;5114500;28;20023;-46
2023/12/28 02:53:03;;;;;;;2.47;1.70;;;12.30;99.90;;;;;;5114401;28;20031;-46
2023/12/28 02:55:28;;;;;;;3.08;1.90;;;12.30;99.90;;;;;;5114618;28;20023;-45
2023/12/28 02:57:59;;;;;;;3.20;1.95;;;12.30;99.90;;;;;;5114308;28;20027;-45
2023/12/28 03:00:24;;;;;;;3.65;1.88;;;12.30;99.90;;;;;;5114383;28;20058;-46
2023/12/28 03:02:50;;;;;;;3.45;2.10;;;12.40;99.90;;;;;;5114316;28;20043;-46
2023/12/28 03:05:16;;;;;;;2.25;1.60;;;12.30;99.90;;;;;;5114159;28;20102;-45
2023/12/28 03:07:42;;;;;;;2.92;1.90;;;12.40;99.90;;;;;;5113991;28;20020;-45
2023/12/28 03:10:09;;;;;;;4.22;1.92;;;12.40;99.90;;;;;;5114627;28;20019;-46
2023/12/28 03:12:35;;;;;;;2.17;1.70;;;12.50;99.90;;;;;;5114157;28;20477;-46
2023/12/28 03:15:00;;;;;;;5.80;1.83;;;12.50;99.90;;;;;;5114251;28;20042;-46
2023/12/28 03:17:26;;;;;;;2.33;1.88;;;12.50;99.90;;;;;;5113911;28;20031;-45
2023/12/28 03:19:52;;;;;;;2.22;1.67;;;12.50;99.90;;;;;;5113955;28;20473;-45
2023/12/28 03:22:18;;;;;;;2.35;1.90;;;12.60;99.90;;;;;;5114259;28;20282;-45
2023/12/28 03:24:44;;;;;;;2.28;1.75;;;12.60;99.90;;;;;;5114071;28;20063;-45
2023/12/28 03:27:09;;;;;;;2.45;1.80;;;12.60;99.80;;;;;;5113867;27;20062;-45
2023/12/28 03:29:35;;;;;;;2.85;1.80;;;12.50;99.80;;;;;;5113803;28;20019;-46
2023/12/28 03:32:01;;;;;;;2.03;1.70;;;12.60;99.80;;;;;;5113734;28;20100;-45
2023/12/28 03:34:29;;;;;;;3.40;1.85;;;12.60;99.70;;;;;;5113866;28;20063;-46
2023/12/28 03:36:54;;;;;;;2.30;1.70;;;12.60;99.70;;;;;;5113748;28;20475;-45
2023/12/28 03:39:20;;;;;;;2.33;1.55;;;12.60;99.70;;;;;;5113597;28;20066;-45
2023/12/28 03:41:47;;;;;;;2.42;1.70;;;12.60;99.70;;;;;;5113603;28;20020;-46
2023/12/28 03:44:13;;;;;;;2.28;1.80;;;12.60;99.90;;;;;;5112232;28;20073;-45
2023/12/28 03:46:38;;;;;;;2.80;1.67;;;12.60;99.60;;;;;;5113366;28;20028;-46
2023/12/28 03:49:04;;;;;;;2.05;1.50;;;12.60;99.60;;;;;;5113206;28;20027;-46
2023/12/28 03:51:30;;;;;;;2.70;1.83;;;12.60;99.60;;;;;;5113313;28;20477;-46
2023/12/28 03:53:55;;;;;;;2.28;1.65;;;12.60;99.50;;;;;;5113426;28;20038;-45
2023/12/28 03:56:26;;;;;;;3.00;1.83;;;12.60;99.50;;;;;;5113210;28;20027;-45
2023/12/28 03:58:51;;;;;;;2.83;1.60;;;12.60;99.50;;;;;;5113195;28;20057;-46
2023/12/28 04:01:22;;;;;;;2.90;1.50;;;12.60;99.50;;;;;;5113103;28;20031;-46
2023/12/28 04:03:48;;;;;;;2.85;1.75;;;12.60;99.50;;;;;;5112888;28;20072;-46
2023/12/28 04:06:14;;;;;;;2.65;1.80;;;12.60;99.50;;;;;;5113155;28;20062;-45
2023/12/28 04:08:41;;;;;;;2.53;1.65;;;12.60;99.50;;;;;;5112948;28;20028;-46
2023/12/28 04:11:07;;;;;;;2.30;1.70;;;12.60;99.60;;;;;;5112884;28;20384;-46
2023/12/28 04:13:32;;;;;;;2.47;1.90;;;12.60;99.60;;;;;;5113182;28;20024;-46
2023/12/28 04:15:58;;;;;;;2.13;1.70;;;12.60;99.50;;;;;;5112976;28;20035;-46
2023/12/28 04:18:24;;;;;;;2.67;1.65;;;12.60;99.50;;;;;;5112731;28;20023;-45
2023/12/28 04:20:49;;;;;;;2.70;1.55;;;12.50;99.50;;;;;;5112811;28;20031;-45
2023/12/28 04:23:15;;;;;;;2.67;1.60;;;12.50;99.50;;;;;;5112571;28;20031;-46
2023/12/28 04:25:41;;;;;;;2.47;1.63;;;12.50;99.50;;;;;;5112881;28;20046;-45
2023/12/28 04:28:07;;;;;;;2.70;1.45;;;12.60;99.60;;;;;;5112542;28;20564;-45
2023/12/28 04:30:33;;;;;;;3.35;1.90;;;12.50;99.50;;;;;;5112487;28;20466;-46
2023/12/28 04:32:59;;;;;;;2.33;1.35;;;12.50;99.60;;;;;;5112403;28;20023;-45
2023/12/28 04:35:25;;;;;;;2.85;1.48;;;12.50;99.60;;;;;;5112772;28;20023;-45
2023/12/28 04:37:50;;;;;;;2.35;1.58;;;12.50;99.60;;;;;;5112376;28;20367;-46
2023/12/28 04:40:17;;;;;;;2.13;1.40;;;12.50;99.60;;;;;;5112516;28;20456;-46
2023/12/28 04:42:43;;;;;;;2.22;1.40;;;12.50;99.70;;;;;;5112520;28;20107;-46
2023/12/28 04:45:10;;;;;;;2.10;1.60;;;12.50;99.70;;;;;;5112195;28;20174;-46
2023/12/28 04:47:36;;;;;;;1.60;1.20;;;12.50;99.70;;;;;;5112222;28;20020;-46
2023/12/28 04:50:03;;;;;;;2.38;1.30;;;12.50;99.70;;;;;;5112615;28;20024;-46
2023/12/28 04:52:29;;;;;;;1.77;1.40;;;12.40;99.70;;;;;;5112201;28;20393;-44
2023/12/28 04:54:54;;;;;;;2.30;1.50;;;12.40;99.70;;;;;;5111898;28;20035;-46
2023/12/28 04:57:20;;;;;;;6.18;1.50;;;12.40;99.80;;;;;;5111901;28;20137;-45
2023/12/28 04:59:46;;;;;;;2.42;1.23;;;12.40;99.80;;;;;;5112270;28;20028;-46
2023/12/28 05:02:12;;;;;;;1.50;1.17;;;12.40;99.80;;;;;;5112175;28;20420;-45
2023/12/28 05:04:40;;;;;;;2.80;1.70;;;12.40;99.80;;;;;;5112175;28;20027;-45
2023/12/28 05:07:06;;;;;;;1.92;1.40;;;12.40;99.80;;;;;;5112172;28;20030;-45
2023/12/28 05:09:32;;;;;;;2.17;1.48;;;12.40;99.80;;;;;;5112084;28;20027;-46
2023/12/28 05:11:57;;;;;;;2.00;1.38;;;12.40;99.90;;;;;;5111875;28;20034;-43
2023/12/28 05:14:23;;;;;;;1.90;1.45;;;12.40;99.90;;;;;;5111920;28;20497;-43
2023/12/28 05:16:49;;;;;;;1.55;1.27;;;12.40;99.90;;;;;;5111798;28;20106;-42
2023/12/28 05:19:15;;;;;;;2.42;1.40;;;12.40;99.90;;;;;;5111806;28;20452;-43
2023/12/28 05:21:40;;;;;;;1.52;1.30;;;12.40;99.90;;;;;;5111839;28;20031;-42
2023/12/28 05:24:06;;;;;;;1.88;1.35;;;12.30;99.90;;;;;;5111630;28;20111;-43
2023/12/28 05:26:32;;;;;;;3.03;1.27;;;12.30;99.90;;;;;;5112117;28;20469;-46
2023/12/28 05:28:57;;;;;;;2.03;1.17;;;12.30;99.90;;;;;;5111633;28;20023;-45
2023/12/28 05:31:23;;;;;;;2.08;1.20;;;12.30;99.90;;;;;;5111491;28;20027;-45
2023/12/28 05:33:48;;;;;;;1.90;1.17;;;12.30;99.90;;;;;;5111855;28;20434;-46
2023/12/28 05:36:14;;;;;;;1.52;1.38;;;12.30;99.90;;;;;;5111487;28;20055;-46
2023/12/28 05:38:39;;;;;;;2.58;1.20;;;12.30;99.90;;;;;;5111583;28;20473;-45
2023/12/28 05:41:05;;;;;;;1.55;1.15;;;12.30;99.90;;;;;;5111911;28;20558;-46
2023/12/28 05:43:31;;;;;;;1.77;1.20;;;12.20;99.90;;;;;;5111793;28;20702;-45
2023/12/28 05:45:56;;;;;;;1.77;1.30;;;12.30;99.90;;;;;;5111289;28;20059;-46
2023/12/28 05:48:22;;;;;;;2.75;1.40;;;12.30;99.90;;;;;;5113598;28;20106;-45
2023/12/28 05:50:48;;;;;;;2.00;1.23;;;12.30;99.90;;;;;;5111571;28;20035;-45
2023/12/28 05:53:13;;;;;;;1.80;1.30;;;12.30;99.90;;;;;;5113072;28;20035;-46
2023/12/28 05:55:43;;;;;;;1.90;1.20;;;12.20;99.90;;;;;;5111435;28;20020;-45
2023/12/28 05:58:09;;;;;;;1.80;1.20;;;12.30;99.90;;;;;;5111064;28;20430;-45
2023/12/28 06:00:36;;;;;;;2.55;1.25;;;12.30;99.90;;;;;;5112451;28;20016;-45
2023/12/28 06:03:02;;;;;;;2.33;1.17;;;12.20;99.90;;;;;;5111036;28;20026;-46
2023/12/28 06:05:28;;;;;;;1.75;1.25;;;12.20;99.90;;;;;;5111166;28;20456;-45
2023/12/28 06:07:54;;;;;;;1.58;1.10;;;12.20;99.90;;;;;;5115875;28;20111;-45
2023/12/28 06:10:20;;;;;;;1.83;1.20;;;12.20;99.90;;;;;;5115668;28;20473;-46
2023/12/28 06:12:45;;;;;;;1.77;1.42;;;12.20;99.90;;;;;;5115674;28;20121;-46
2023/12/28 06:15:11;;;;;;;2.58;1.30;;;12.20;99.90;;;;;;5116949;28;20027;-45
2023/12/28 06:17:37;;;;;;;2.03;1.30;;;12.20;99.90;;;;;;5116080;28;20458;-46
2023/12/28 06:20:03;;;;;;;1.75;1.08;;;12.20;99.90;;;;;;5116992;28;20115;-45
2023/12/28 06:22:28;;;;;;;1.63;1.00;;;12.20;99.90;;;;;;5115105;28;20097;-46
2023/12/28 06:24:55;;;;;;;1.55;1.25;;;12.20;99.90;;;;;;5116262;28;20035;-46
2023/12/28 06:27:21;;;;;;;1.73;1.00;;;12.20;99.90;;;;;;5116607;28;20035;-46
2023/12/28 06:29:47;;;;;;;1.80;1.38;;;12.20;99.90;;;;;;5115781;28;20031;-45
2023/12/28 06:32:12;;;;;;;1.50;1.10;;;12.20;99.90;;;;;;5116238;28;20019;-46
2023/12/28 06:34:39;;;;;;;1.70;0.90;;;12.20;99.90;;;;;;5116461;28;20028;-45
2023/12/28 06:37:04;;;;;;;2.13;1.20;;;12.20;99.90;;;;;;5115042;28;20039;-46
2023/12/28 06:39:30;;;;;;;1.70;1.00;;;12.20;99.90;;;;;;5117023;28;20023;-45
2023/12/28 06:41:55;;;;;;;2.65;1.10;;;12.10;99.90;;;;;;5115711;28;20028;-46
2023/12/28 06:44:21;;;;;;;2.15;1.23;;;12.10;99.90;;;;;;5115983;28;20444;-46
2023/12/28 06:46:47;;;;;;;2.53;1.10;;;12.10;99.90;;;;;;5115433;28;20461;-45
2023/12/28 06:49:12;;;;;;;3.05;1.30;;;12.10;99.90;;;;;;5115647;28;20016;-45
2023/12/28 06:51:38;;;;;;;2.00;1.23;;;12.10;99.90;;;;;;5115150;28;20080;-45
2023/12/28 06:54:03;;;;;;;1.65;0.98;;;12.10;99.90;;;;;;5114244;28;20051;-46
2023/12/28 06:56:29;;;;;;;1.48;1.00;;;12.10;99.90;;;;;;5114114;28;20462;-46
2023/12/28 06:58:55;;;;;;;1.20;0.98;;;12.20;99.90;;;;;;5113972;28;20026;-45
2023/12/28 07:01:20;;;;;;;2.08;1.10;;;12.10;99.90;;;;;;5115361;28;20066;-46
2023/12/28 07:03:46;;;;;;;1.63;0.98;;;12.10;99.90;;;;;;5115592;28;20507;-45
2023/12/28 07:06:13;;;;;;;1.73;1.20;;;12.10;99.90;;;;;;5114475;28;20548;-46
2023/12/28 07:08:39;;;;;;;2.42;1.17;;;12.10;99.90;;;;;;5114121;28;20023;-46
2023/12/28 07:11:04;;;;;;;2.08;1.00;;;12.10;99.90;;;;;;5114736;28;20049;-46
2023/12/28 07:13:30;;;;;;;1.50;1.23;;;12.10;99.90;;;;;;5115042;28;20035;-46
2023/12/28 07:15:56;;;;;;;1.15;1.05;;;12.10;99.90;;;;;;5114156;28;20031;-46
2023/12/28 07:18:21;;;;;;;2.58;1.35;;;12.10;99.90;;;;;;5113545;28;20031;-45
2023/12/28 07:20:47;;;;;;;2.10;1.27;;;12.10;99.90;;;;;;5114614;28;20020;-46
2023/12/28 07:23:13;;;;;;;1.63;1.20;;;12.10;99.90;;;;;;5113463;28;20035;-45
2023/12/28 07:25:38;;;;;;;1.65;0.93;;;12.10;99.90;;;;;;5113600;28;20026;-46
2023/12/28 07:28:04;;;;;;;1.35;1.00;;;12.10;99.90;;;;;;5113461;28;20477;-46
2023/12/28 07:30:30;;;;;;;1.58;1.15;;;12.10;99.90;;;;;;5113877;28;20019;-45
2023/12/28 07:32:56;;;;;;;1.27;0.90;;;12.10;99.90;;;;;;5115113;28;20020;-46
2023/12/28 07:35:21;;;;;;;2.13;1.23;;;12.10;99.90;;;;;;5115051;28;20020;-45
2023/12/28 07:37:47;;;;;;;1.90;1.15;;;12.20;99.90;;;;;;5115141;28;20027;-45
2023/12/28 07:40:13;;;;;;;2.00;1.10;;;12.20;99.90;;;;;;5114827;28;20066;-46
2023/12/28 07:42:39;;;;;;;1.42;0.90;;;12.20;99.90;;;;;;5114014;28;20039;-46
2023/12/28 07:45:05;;;;;;;2.25;1.10;;;12.20;99.90;;;;;;5113769;28;20031;-45
2023/12/28 07:47:30;;;;;;;2.00;1.00;;;12.20;99.90;;;;;;5113041;28;20562;-44
2023/12/28 07:49:56;;;;;;;2.20;1.27;;;12.20;99.90;;;;;;5113019;28;20027;-43
2023/12/28 07:52:22;;;;;;;3.10;1.52;;;12.30;99.90;;;;;;5113005;28;20137;-44
2023/12/28 07:54:47;;;;;;;2.03;1.00;;;12.30;99.80;;;;;;5112984;28;20030;-45
2023/12/28 07:57:13;;;;;;;1.23;0.88;;;12.30;99.70;;;;;;5112991;28;20034;-45
2023/12/28 07:59:39;;;;;;;1.88;1.02;;;12.40;99.60;;;;;;5112722;28;20027;-45
2023/12/28 08:02:05;;;;;;;1.98;1.13;;;12.40;99.50;;;;;;5114067;28;20032;-46
2023/12/28 08:04:31;;;;;;;2.03;1.10;;;12.40;99.40;;;;;;5115059;28;20428;-46
2023/12/28 08:06:58;;;;;;;1.70;1.13;;;12.50;99.30;;;;;;5113852;28;20053;-46
2023/12/28 08:09:23;;;;;;;3.33;1.38;;;12.50;99.50;;;;;;5115059;28;20478;-46
2023/12/28 08:11:49;;;;;;;1.92;1.00;;;12.50;99.20;;;;;;5114397;28;20035;-46
2023/12/28 08:14:14;;;;;;;2.83;1.17;;;12.60;99.10;;;;;;5113366;28;20035;-45
2023/12/28 08:16:40;;;;;;;1.98;1.25;;;12.60;99.10;;;;;;5113359;28;20573;-46
2023/12/28 08:19:06;;;;;;;1.70;1.25;;;12.60;99.10;;;;;;5114142;28;20062;-46
2023/12/28 08:21:31;;;;;;;2.13;1.30;;;12.70;99.10;;;;;;5113982;28;20111;-45
2023/12/28 08:23:57;;;;;;;2.63;1.15;;;12.70;99.10;;;;;;5113835;28;20032;-45
2023/12/28 08:26:23;;;;;;;2.45;1.20;;;12.80;99.10;;;;;;5113481;28;20027;-46
2023/12/28 08:28:48;;;;;;;1.50;0.88;;;12.80;99.00;;;;;;5112528;28;20020;-46
2023/12/28 08:31:14;;;;;;;2.50;1.38;;;12.80;99.00;;;;;;5113068;28;20110;-46
2023/12/28 08:33:40;;;;;;;2.70;1.38;;;12.80;99.00;;;;;;5113042;28;20038;-45
2023/12/28 08:36:11;;;;;;;2.05;1.13;;;12.90;99.00;;;;;;5112533;28;20028;-46
2023/12/28 08:38:37;;;;;;;2.33;1.17;;;12.90;99.00;;;;;;5114059;28;20023;-46
2023/12/28 08:41:08;;;;;;;1.83;1.20;;;12.90;99.00;;;;;;5112848;28;20582;-46
2023/12/28 08:43:34;;;;;;;2.08;1.10;;;12.90;98.90;;;;;;5113800;28;20405;-45
2023/12/28 08:45:59;;;;;;;1.90;1.23;;;13.00;99.00;;;;;;5114038;28;20118;-46
2023/12/28 08:48:25;;;;;;;1.75;1.20;;;13.00;98.90;;;;;;5115068;28;20035;-45
2023/12/28 08:50:51;;;;;;;2.30;1.10;;;13.00;98.90;;;;;;5111893;28;20028;-45
2023/12/28 08:53:16;;;;;;;1.52;1.10;;;13.00;98.90;;;;;;5113544;28;20111;-46
2023/12/28 08:55:42;;;;;;;2.25;1.20;;;13.10;98.90;;;;;;5114186;28;20032;-46
2023/12/28 08:58:07;;;;;;;2.70;1.20;;;13.10;98.90;;;;;;5111758;28;20020;-46
2023/12/28 09:00:33;;;;;;;3.38;1.17;;;13.10;98.80;;;;;;5112726;28;20496;-45
2023/12/28 09:02:59;;;;;;;3.03;1.30;;;13.10;98.80;;;;;;5112254;28;20023;-45
2023/12/28 09:05:24;;;;;;;1.77;1.13;;;13.10;98.80;;;;;;5111948;28;20431;-45
2023/12/28 09:07:50;;;;;;;1.90;1.10;;;13.20;98.80;;;;;;5112943;28;20020;-45
2023/12/28 09:10:16;;;;;;;1.77;1.02;;;13.20;98.80;;;;;;5111627;28;20024;-45
2023/12/28 09:12:42;;;;;;;1.73;1.00;;;13.20;98.80;;;;;;5111510;28;20022;-46
2023/12/28 09:15:08;;;;;;;2.03;1.10;;;13.20;98.80;;;;;;5112619;28;20125;-46
2023/12/28 09:17:34;;;;;;;2.35;1.15;;;13.20;98.70;;;;;;5112332;28;20036;-46
2023/12/28 09:20:01;;;;;;;2.80;1.38;;;13.30;98.70;;;;;;5113284;28;20024;-45
2023/12/28 09:22:27;;;;;;;2.33;0.90;;;13.30;98.70;;;;;;5112265;28;20068;-45
2023/12/28 09:24:53;;;;;;;3.13;1.38;;;13.40;98.70;;;;;;5114045;28;20023;-45
2023/12/28 09:27:18;;;;;;;1.85;1.10;;;13.40;98.60;;;;;;5112196;28;20030;-44
2023/12/28 09:29:44;;;;;;;1.88;1.13;;;13.40;98.50;;;;;;5111308;28;20032;-44
2023/12/28 09:32:10;;;;;;;2.28;1.25;;;13.40;98.50;;;;;;5111422;28;20051;-45
2023/12/28 09:34:35;;;;;;;1.52;1.00;;;13.50;98.50;;;;;;5112928;28;20481;-45
2023/12/28 09:37:01;;;;;;;2.00;1.20;;;13.50;98.50;;;;;;5111314;28;20098;-45
2023/12/28 09:39:27;;;;;;;1.15;1.00;;;13.50;98.40;;;;;;5112221;28;20073;-44
2023/12/28 09:42:01;;;;;;;2.08;1.23;;;13.60;98.40;;;;;;5115027;28;20421;-45
2023/12/28 09:44:28;;;;;;;;;;;13.60;98.40;;;;;;5100358;28;20078;-45
2023/12/28 09:46:55;;;;;;;2.83;1.30;;;13.60;98.40;;;;;;5095275;28;19908;-44
2023/12/28 09:49:21;;;;;;;2.25;1.55;;;13.60;98.30;;;;;;5094993;28;20023;-45
2023/12/28 09:51:47;;;;;;;2.58;1.20;;;13.70;98.20;;;;;;5095826;28;20378;-44
2023/12/28 09:54:13;;;;;;;2.20;1.30;;;13.70;98.10;;;;;;5095717;28;20097;-44
2023/12/28 09:56:40;;;;;;;3.00;1.67;;;13.80;98.00;;;;;;5097067;28;20420;-45
2023/12/28 09:59:07;;;;;;;3.35;1.60;;;13.80;98.00;;;;;;5096994;28;20077;-44
2023/12/28 10:01:36;;;;;;;2.58;1.60;;;13.80;97.90;;;;;;5095146;28;20028;-43
2023/12/28 10:04:06;;;;;;;5.80;1.55;;;13.90;97.90;;;;;;5094680;28;20028;-44
2023/12/28 10:06:32;;;;;;;2.15;1.50;;;13.90;97.80;;;;;;5094645;28;20012;-45
2023/12/28 10:08:57;;;;;;;2.28;1.35;;;13.90;97.80;;;;;;5094580;28;20027;-45
2023/12/28 10:11:25;;;;;;;2.10;1.30;;;14.00;97.80;;;;;;5094596;28;20297;-45
2023/12/28 10:13:50;;;;;;;3.88;1.60;;;14.00;97.70;;;;;;5094626;28;20036;-45
2023/12/28 10:16:16;;;;;;;3.10;1.17;;;14.10;97.70;;;;;;5095479;28;20028;-42
2023/12/28 10:18:43;;;;;;;2.28;1.30;;;14.10;97.70;;;;;;5096298;28;20130;-45
2023/12/28 10:21:09;;;;;;;1.92;1.15;;;14.10;97.70;;;;;;5094340;28;20028;-45
2023/12/28 10:23:36;;;;;;;2.40;1.50;;;14.10;97.70;;;;;;5094053;28;20482;-45
2023/12/28 10:26:04;;;;;;;3.90;1.13;;;14.10;97.60;;;;;;5094230;28;20401;-45
2023/12/28 10:28:32;;;;;;;2.53;1.20;;;14.10;97.60;;;;;;5094272;28;20034;-45
2023/12/28 10:30:58;;;;;;;1.70;1.30;;;14.10;97.60;;;;;;5094233;28;20397;-43
2023/12/28 10:33:24;;;;;;;2.10;1.50;;;14.20;97.60;;;;;;5095531;28;20107;-45
2023/12/28 10:35:55;;;;;;;2.20;1.15;;;14.20;97.50;;;;;;5096478;28;20400;-45
2023/12/28 10:38:21;;;;;;;2.33;1.08;;;14.20;97.50;;;;;;5094251;28;20043;-45
2023/12/28 10:40:49;;;;;;;2.55;1.38;;;14.30;97.50;;;;;;5095008;28;20100;-45
2023/12/28 10:43:17;;;;;;;2.75;1.13;;;14.30;97.40;;;;;;5094009;28;20024;-45
2023/12/28 10:45:46;;;;;;;3.03;1.40;;;14.30;97.70;;;;;;5094502;28;20027;-44
2023/12/28 10:48:13;;;;;;;1.95;1.10;;;14.40;97.40;;;;;;5095905;28;20028;-45
2023/12/28 10:50:58;;;;;;;2.15;1.30;;;14.40;97.40;;;;;;5096642;28;20020;-45
2023/12/28 10:53:29;;;;;;;3.42;1.35;;;14.40;97.40;;;;;;5092888;28;20085;-45
2023/12/28 10:56:36;;;;;;;1.50;0.95;;;14.40;97.30;;;;;;5093875;28;20024;-45
2023/12/28 10:59:05;;;;;;;2.28;1.20;;;14.50;97.30;;;;;;5095144;28;20088;-45
2023/12/28 11:01:33;;;;;;;2.85;1.40;;;14.50;97.30;;;;;;5094035;28;20020;-45
2023/12/28 11:04:08;;;;;;;1.20;1.00;;;14.50;97.20;;;;;;5094950;28;20024;-45
2023/12/28 11:06:36;;;;;;;2.78;1.15;;;14.50;97.20;;;;;;5096102;28;20028;-44
2023/12/28 11:09:03;;;;;;;2.53;1.05;;;14.50;97.20;;;;;;5093804;28;20016;-45
2023/12/28 11:11:29;;;;;;;1.67;1.08;;;14.50;97.10;;;;;;5094864;28;20058;-45
2023/12/28 11:13:56;;;;;;;2.03;1.00;;;14.60;97.10;;;;;;5096369;28;20149;-45
2023/12/28 11:16:22;;;;;;;2.75;1.50;;;14.60;97.10;;;;;;5094702;28;20024;-44
2023/12/28 11:18:49;;;;;;;2.22;1.30;;;14.70;97.10;;;;;;5093880;28;20028;-45
2023/12/28 11:21:17;;;;;;;1.83;1.20;;;14.70;97.00;;;;;;5094257;28;20111;-45
2023/12/28 11:23:44;;;;;;;2.45;1.10;;;14.70;97.00;;;;;;5094952;28;20024;-45
2023/12/28 11:26:20;;;;;;;1.52;1.10;;;14.70;97.00;;;;;;5095046;28;20249;-45
2023/12/28 11:28:46;;;;;;;2.05;0.95;;;14.70;96.90;;;;;;5094093;28;20028;-45
2023/12/28 11:31:16;;;;;;;1.45;0.88;;;14.80;97.30;;;;;;5093252;28;20478;-45
2023/12/28 11:33:52;;;;;;;2.05;1.17;;;14.80;96.90;;;;;;5093102;28;20378;-45
2023/12/28 11:36:36;;;;;;;1.20;0.82;;;14.80;96.90;;;;;;5092814;28;20023;-45
2023/12/28 11:39:03;;;;;;;2.05;1.20;;;14.80;96.80;;;;;;5093764;28;20171;-45
2023/12/28 11:41:32;;;;;;;1.23;1.00;;;14.80;96.80;;;;;;5093264;28;20020;-44
2023/12/28 11:44:02;;;;;;;2.20;1.08;;;14.90;96.80;;;;;;5092604;28;20055;-45
2023/12/28 11:46:29;;;;;;;1.30;1.00;;;14.90;96.80;;;;;;5093385;28;20016;-45
2023/12/28 11:49:07;;;;;;;1.10;0.90;;;14.90;96.70;;;;;;5094645;28;20023;-45
2023/12/28 11:51:35;;;;;;;2.20;1.30;;;15.00;96.70;;;;;;5094713;28;20016;-44
2023/12/28 11:54:03;;;;;;;3.08;1.13;;;15.00;96.70;;;;;;5095276;28;20020;-45
2023/12/28 11:56:29;;;;;;;0.98;0.85;;;15.00;96.60;;;;;;5093156;28;20055;-45
2023/12/28 11:58:55;;;;;;;1.17;0.85;;;15.00;96.60;;;;;;5093511;28;20031;-45
2023/12/28 12:01:20;;;;;;;1.67;1.00;;;15.00;96.60;;;;;;5094561;28;20054;-45
2023/12/28 12:03:46;;;;;;;2.97;1.13;;;15.00;96.60;;;;;;5093344;28;20016;-45
2023/12/28 12:06:12;;;;;;;1.30;0.90;;;15.10;96.50;;;;;;5093684;28;20035;-45
2023/12/28 12:08:38;;;;;;;2.13;0.95;;;15.10;96.50;;;;;;5093918;28;20051;-42
2023/12/28 12:11:07;;;;;;;2.17;1.08;;;15.10;96.50;;;;;;5092284;28;20501;-45
2023/12/28 12:13:33;;;;;;;1.88;1.10;;;15.10;96.50;;;;;;5093208;28;20051;-44
2023/12/28 12:16:02;;;;;;;1.60;0.90;;;15.10;96.40;;;;;;5092491;28;20355;-45
2023/12/28 12:18:29;;;;;;;1.10;0.90;;;15.10;96.40;;;;;;5093171;28;20508;-44
2023/12/28 12:20:55;;;;;;;1.90;1.00;;;15.10;96.40;;;;;;5092722;28;20040;-45
2023/12/28 12:23:21;;;;;;;2.13;1.23;;;15.20;96.40;;;;;;5092551;28;20054;-45
2023/12/28 12:25:46;;;;;;;1.08;0.77;;;15.10;96.30;;;;;;5093865;28;20028;-45
2023/12/28 12:28:12;;;;;;;1.88;0.98;;;15.20;96.40;;;;;;5092492;28;20107;-45
2023/12/28 12:30:38;;;;;;;1.80;1.23;;;15.20;96.30;;;;;;5093369;28;20027;-45
2023/12/28 12:33:04;;;;;;;1.77;1.00;;;15.20;96.30;;;;;;5092740;28;20104;-45
2023/12/28 12:35:30;;;;;;;1.42;0.95;;;15.20;96.30;;;;;;5093487;28;20047;-45
2023/12/28 12:37:55;;;;;;;2.05;1.20;;;15.30;96.30;;;;;;5093640;28;20030;-45
2023/12/28 12:40:21;;;;;;;3.38;1.27;;;15.30;96.30;;;;;;5094408;28;20027;-45
2023/12/28 12:42:58;;;;;;;1.83;1.00;;;15.20;96.30;;;;;;5092905;28;20374;-43
2023/12/28 12:45:24;;;;;;;1.90;1.27;;;15.20;96.20;;;;;;5092538;28;20454;-45